Main page
METAR-TAF:

METAR-TAF

Airports :

Getafe Air Base

Madrid-Getafe, Spain

latitude: 40-18N, longitude: 003-43W, elevation: 620 m

Current weather observation

The report was made 3 hours and 39 minutes ago, at 18:00 UTC
Wind 6 kt from the West/Southwest
Temperature 19°C
Humidity 49%
Pressure 1014 hPa
Visibility 10 km or more
no clouds below 1500 m and no cumulonimbus

METAR: LEGT 171800Z 25006KT CAVOK 19/08 Q1014

Time: 23:39 (21:39 UTC)

Forecast

The report was made 4 hours and 39 minutes ago, at 17:00 UTC
Forecast valid from 17 at 18 UTC to 18 at 03 UTC
Wind 5 kt from variable directions
Visibility 10 km or more
no clouds below 1500 m and no cumulonimbus

TAF: LEGT 171700Z 1718/1803 VRB05KT CAVOK

Weather observations and forecasts of more than 4000 airports (METAR and TAF reports).

The available stations are represented by yellow and red dots on the map.

Hover mouse over dot to see the name of the station.

Then click to see weather observations and forecasts.

To change the map : click on the green buttons with a black cross to zoom in, on the green button with a dash to zoom out, or on the green arrows for adjacent maps.


METAR-TAF: